Time;durP1;ratioP1;P1;durP2;ratioP2;P2;SDS_P1;SDS_P2;PMS_P1;PMS_P2;Temp;Humidity;BMP_temperature;BMP_pressure;BME280_temperature;BME280_humidity;BME280_pressure;Samples;Min_cycle;Max_cycle;Signal;HPM_P1;HPM_P2
2022/01/25 00:10:40;;;;;;;8.10;6.12;;;;;;;8.33;59.35;101002.20;1771496;80;22062;-67
2022/01/25 00:26:30;;;;;;;7.08;5.37;;;;;;;8.11;58.84;100985.34;1770613;80;21065;-69
2022/01/25 00:29:04;;;;;;;8.38;6.35;;;;;;;8.08;58.77;100991.73;1761601;80;21466;-66
2022/01/25 00:31:23;;;;;;;7.12;5.62;;;;;;;8.06;58.68;100988.86;1764457;79;21037;-66
2022/01/25 00:33:54;;;;;;;7.07;5.73;;;;;;;8.03;58.62;100991.73;1759611;80;21213;-67
2022/01/25 00:36:23;;;;;;;7.20;5.90;;;;;;;8.01;58.52;100991.85;1753067;80;21076;-66
2022/01/25 00:38:50;;;;;;;6.10;5.00;;;;;;;7.99;58.46;100987.16;1757810;80;21007;-67
2022/01/25 00:41:17;;;;;;;7.00;5.22;;;;;;;7.97;58.38;100983.80;1787631;80;21077;-67
2022/01/25 00:43:45;;;;;;;7.37;5.90;;;;;;;7.95;58.31;100979.11;1765410;79;20992;-66
2022/01/25 00:46:12;;;;;;;6.90;5.78;;;;;;;7.92;58.22;100979.37;1789441;79;21065;-67
2022/01/25 00:48:44;;;;;;;6.72;5.25;;;;;;;7.90;58.16;100978.65;1786035;79;21198;-68
2022/01/25 00:54:28;;;;;;;6.72;5.33;;;;;;;7.86;58.00;100971.89;1768796;80;21064;-66
2022/01/25 00:56:47;;;;;;;5.45;4.80;;;;;;;7.84;57.93;100968.52;1775151;80;21547;-66
2022/01/25 00:59:18;;;;;;;6.97;5.78;;;;;;;7.80;57.88;100961.33;1777992;79;21048;-66
2022/01/25 01:01:45;;;;;;;6.70;5.53;;;;;;;7.78;57.83;100957.10;1772968;80;21149;-68
2022/01/25 01:04:13;;;;;;;6.45;5.47;;;;;;;7.77;57.76;100966.85;1782561;80;21045;-68
2022/01/25 01:06:42;;;;;;;5.83;5.12;;;;;;;7.75;57.72;100965.30;1780378;79;21037;-67
2022/01/25 01:09:09;;;;;;;7.40;5.83;;;;;;;7.73;57.67;100965.90;1767948;79;21032;-65
2022/01/25 01:11:42;;;;;;;7.70;6.05;;;;;;;7.72;57.62;100962.87;1780672;80;21014;-66
2022/01/25 01:14:19;;;;;;;7.50;6.00;;;;;;;7.68;57.58;100957.81;1763837;80;21093;-69
2022/01/25 01:17:03;;;;;;;6.25;5.65;;;;;;;7.66;57.52;100950.48;1743199;80;21096;-67
2022/01/25 01:48:32;;;;;;;6.05;5.45;;;;;;;7.42;56.96;100962.98;1764962;78;21096;-67
2022/01/25 01:51:07;;;;;;;8.48;5.92;;;;;;;7.40;56.90;100964.91;1767694;80;21024;-68
2022/01/25 01:53:32;;;;;;;6.90;6.20;;;;;;;7.39;56.87;100959.23;1775740;78;21101;-67
2022/01/25 01:55:59;;;;;;;6.55;5.83;;;;;;;7.36;56.83;100952.39;1781540;79;21024;-67
2022/01/25 01:58:26;;;;;;;5.83;4.97;;;;;;;7.34;56.77;100951.67;1770734;78;21041;-68
2022/01/25 02:00:52;;;;;;;6.30;5.65;;;;;;;7.34;56.75;100946.84;1784145;78;21092;-67
2022/01/25 02:03:19;;;;;;;5.78;5.17;;;;;;;7.33;56.70;100949.14;1788952;79;21513;-68
2022/01/25 02:05:45;;;;;;;7.42;6.08;;;;;;;7.32;56.67;100946.12;1787141;78;21331;-67
2022/01/25 02:08:11;;;;;;;6.00;5.40;;;;;;;7.31;56.61;100948.42;1786558;79;21024;-68
2022/01/25 02:10:38;;;;;;;6.75;5.72;;;;;;;7.29;56.54;100946.72;1772595;80;21550;-68
2022/01/25 02:13:07;;;;;;;6.50;5.75;;;;;;;7.28;56.51;100941.54;1782803;79;21064;-68
2022/01/25 02:15:36;;;;;;;7.15;5.72;;;;;;;7.27;56.43;100939.88;1784572;80;21025;-67
2022/01/25 02:23:32;;;;;;;7.08;5.85;;;;;;;7.24;56.32;100929.52;1769147;79;21501;-68
2022/01/25 02:26:01;;;;;;;6.60;5.42;;;;;;;7.22;56.28;100927.02;1787137;80;20976;-67
2022/01/25 02:28:31;;;;;;;6.30;5.62;;;;;;;7.20;56.23;100929.40;1781203;80;21009;-66
2022/01/25 02:30:58;;;;;;;7.00;5.72;;;;;;;7.18;56.19;100934.80;1761678;80;21473;-67
2022/01/25 02:33:24;;;;;;;6.17;5.12;;;;;;;7.18;56.18;100933.96;1765060;80;21013;-67
2022/01/25 02:35:51;;;;;;;5.65;4.80;;;;;;;7.16;56.12;100926.14;1793858;79;21014;-66
2022/01/25 02:38:26;;;;;;;7.17;5.42;;;;;;;7.15;56.09;100931.08;1773599;79;21080;-67
2022/01/25 02:40:53;;;;;;;6.40;5.70;;;;;;;7.15;56.05;100926.28;1762836;80;21403;-68
2022/01/25 02:43:20;;;;;;;6.53;5.83;;;;;;;7.13;55.99;100918.92;1761546;80;21095;-68
2022/01/25 02:48:58;;;;;;;6.03;5.35;;;;;;;7.12;55.93;100925.19;1780484;78;21485;-66
2022/01/25 02:51:31;;;;;;;8.95;6.22;;;;;;;7.10;55.91;100926.62;1766481;79;21067;-67
2022/01/25 02:53:57;;;;;;;6.60;5.12;;;;;;;7.07;55.84;100921.09;1766300;78;22200;-68
2022/01/25 02:56:24;;;;;;;6.42;5.28;;;;;;;7.06;55.84;100913.28;1777832;80;21122;-66
2022/01/25 02:58:51;;;;;;;6.03;5.15;;;;;;;7.05;55.80;100911.58;1769523;80;21593;-67
2022/01/25 03:01:17;;;;;;;6.05;5.22;;;;;;;7.04;55.76;100908.10;1755150;81;21030;-69
2022/01/25 03:03:44;;;;;;;6.58;5.65;;;;;;;7.02;55.72;100897.30;1766925;78;21627;-68
2022/01/25 03:06:18;;;;;;;6.33;5.55;;;;;;;7.01;55.70;100891.64;1774881;80;21013;-68
2022/01/25 03:08:45;;;;;;;6.72;5.53;;;;;;;7.01;55.65;100887.22;1777618;78;21128;-68
2022/01/25 03:11:11;;;;;;;6.12;4.67;;;;;;;6.99;55.63;100879.89;1765437;79;21591;-67
2022/01/25 03:13:49;;;;;;;6.22;5.58;;;;;;;6.99;55.58;100885.63;1763433;78;21014;-67
2022/01/25 03:16:18;;;;;;;6.83;5.62;;;;;;;6.98;55.53;100882.16;1784194;79;21044;-67
2022/01/25 03:21:17;;;;;;;6.83;5.20;;;;;;;6.96;55.49;100877.96;1769133;79;21055;-68
2022/01/25 03:23:33;;;;;;;6.28;5.60;;;;;;;6.94;55.45;100872.78;1788775;78;21010;-67
2022/01/25 03:25:59;;;;;;;7.17;6.17;;;;;;;6.94;55.41;100874.59;1773155;80;21000;-67
2022/01/25 03:28:26;;;;;;;6.97;5.47;;;;;;;6.94;55.39;100873.27;1790166;80;21492;-70
2022/01/25 03:30:52;;;;;;;6.65;5.90;;;;;;;6.94;55.33;100857.42;1781323;78;21003;-68
2022/01/25 03:33:18;;;;;;;7.12;6.12;;;;;;;6.92;55.31;100850.93;1787406;79;23294;-67
2022/01/25 03:35:46;;;;;;;6.33;5.50;;;;;;;6.91;55.27;100852.36;1766346;78;21118;-66
2022/01/25 03:38:13;;;;;;;6.92;6.22;;;;;;;6.91;55.24;100849.23;1780978;79;21009;-66
2022/01/25 03:40:39;;;;;;;6.95;6.25;;;;;;;6.89;55.21;100855.98;1791330;78;21024;-67
2022/01/25 03:43:06;;;;;;;7.00;5.97;;;;;;;6.89;55.18;100850.70;1771590;78;21128;-66
2022/01/25 03:45:35;;;;;;;8.15;7.05;;;;;;;6.88;55.13;100858.24;1779476;78;21122;-66
2022/01/25 03:50:42;;;;;;;7.85;6.30;;;;;;;6.88;55.07;100845.52;1753704;80;21031;-68
2022/01/25 03:53:09;;;;;;;8.35;6.70;;;;;;;6.86;55.04;100836.39;1745418;81;21030;-68
2022/01/25 03:55:35;;;;;;;7.62;6.37;;;;;;;6.86;55.00;100841.67;1786225;80;21071;-66
2022/01/25 03:58:02;;;;;;;7.40;6.47;;;;;;;6.84;54.98;100830.38;1768886;78;21145;-66
2022/01/25 04:00:29;;;;;;;7.20;6.45;;;;;;;6.84;54.94;100828.23;1776111;79;21982;-67
2022/01/25 04:03:04;;;;;;;7.55;6.50;;;;;;;6.83;54.93;100822.08;1782450;80;21044;-66
2022/01/25 04:05:35;;;;;;;7.47;6.30;;;;;;;6.82;54.91;100830.98;1746381;81;21009;-68
2022/01/25 04:07:52;;;;;;;7.72;6.12;;;;;;;6.82;54.87;100823.55;1790301;79;21040;-67
2022/01/25 04:10:20;;;;;;;6.12;5.45;;;;;;;6.81;54.84;100829.77;1775774;78;21148;-69
2022/01/25 04:12:46;;;;;;;7.35;6.12;;;;;;;6.80;54.81;100821.02;1770160;80;21028;-67
2022/01/25 04:15:13;;;;;;;7.05;6.35;;;;;;;6.80;54.79;100822.79;1775994;79;21001;-67
2022/01/25 04:17:44;;;;;;;7.25;6.30;;;;;;;6.79;54.73;100822.45;1778569;80;21002;-66
2022/01/25 04:25:21;;;;;;;6.87;6.17;;;;;;;6.77;54.63;100825.69;1760377;80;21732;-65
2022/01/25 04:27:48;;;;;;;6.58;5.87;;;;;;;6.75;54.61;100829.75;1750353;78;21530;-67
2022/01/25 04:30:14;;;;;;;6.55;5.78;;;;;;;6.75;54.60;100824.96;1770665;79;21119;-66
2022/01/25 04:32:45;;;;;;;6.67;5.30;;;;;;;6.74;54.57;100829.87;1753212;79;21001;-65
2022/01/25 04:35:28;;;;;;;7.67;6.12;;;;;;;6.73;54.55;100828.20;1747520;80;21503;-67
2022/01/25 04:54:19;;;;;;;6.28;5.42;;;;;;;6.64;54.36;100813.39;1765571;78;21482;-67
2022/01/25 04:59:32;;;;;;;8.78;6.37;;;;;;;6.61;54.35;100808.36;1679538;82;21151;-66
2022/01/25 05:01:59;;;;;;;6.58;5.85;;;;;;;6.60;54.33;100807.16;1752292;80;21309;-67
2022/01/25 05:04:27;;;;;;;8.58;6.67;;;;;;;6.59;54.33;100794.44;1748202;81;21042;-68
2022/01/25 05:06:52;;;;;;;7.60;6.12;;;;;;;6.58;54.29;100798.02;1745207;80;21053;-68
2022/01/25 05:09:20;;;;;;;7.22;6.28;;;;;;;6.59;54.27;100797.56;1746346;80;21106;-69
2022/01/25 05:11:49;;;;;;;6.45;5.28;;;;;;;6.58;54.23;100795.88;1749384;81;21548;-67
2022/01/25 05:14:25;;;;;;;6.20;5.42;;;;;;;6.58;54.20;100794.55;1753086;80;21487;-67
2022/01/25 05:16:53;;;;;;;6.78;5.78;;;;;;;6.57;54.17;100790.24;1741666;81;21662;-68
2022/01/25 05:24:37;;;;;;;7.25;6.10;;;;;;;6.56;54.09;100785.91;1674175;85;21053;-68
2022/01/25 05:27:07;;;;;;;7.22;5.92;;;;;;;6.55;54.07;100777.61;1722360;81;21013;-66
2022/01/25 05:29:34;;;;;;;7.58;6.53;;;;;;;6.55;54.03;100776.29;1769453;78;21563;-67
2022/01/25 05:32:00;;;;;;;7.28;5.95;;;;;;;6.54;54.00;100774.62;1764974;79;21524;-67
2022/01/25 05:34:27;;;;;;;8.05;6.33;;;;;;;6.53;54.00;100775.11;1747492;78;21560;-67
2022/01/25 05:36:53;;;;;;;6.42;5.47;;;;;;;6.53;53.95;100779.53;1768702;78;21042;-67
2022/01/25 05:39:25;;;;;;;7.45;5.95;;;;;;;6.52;53.93;100772.09;1766828;78;21144;-67
2022/01/25 05:41:56;;;;;;;6.97;5.70;;;;;;;6.52;53.88;100767.30;1771222;79;21007;-67
2022/01/25 05:46:53;;;;;;;7.97;6.42;;;;;;;6.50;53.83;100764.77;1763607;80;21529;-67
2022/01/25 05:49:14;;;;;;;6.72;5.62;;;;;;;6.49;53.79;100760.47;1769469;80;21050;-67
2022/01/25 05:51:41;;;;;;;6.90;6.20;;;;;;;6.49;53.79;100756.02;1769629;79;21102;-66
2022/01/25 05:54:07;;;;;;;7.40;5.85;;;;;;;6.50;53.74;100756.85;1760600;78;21621;-67
2022/01/25 05:56:34;;;;;;;6.92;5.92;;;;;;;6.48;53.72;100759.60;1761504;80;21059;-67
2022/01/25 05:59:00;;;;;;;6.58;5.87;;;;;;;6.48;53.69;100759.60;1767044;80;21054;-67
2022/01/25 06:01:27;;;;;;;7.10;5.58;;;;;;;6.48;53.67;100768.84;1764856;80;21490;-67
2022/01/25 06:03:54;;;;;;;7.50;6.22;;;;;;;6.49;53.63;100768.38;1763158;79;21205;-66
2022/01/25 06:06:20;;;;;;;7.62;6.10;;;;;;;6.48;53.61;100761.41;1747926;80;21495;-69
2022/01/25 06:08:47;;;;;;;7.05;6.00;;;;;;;6.47;53.59;100769.81;1748230;78;21126;-67
2022/01/25 06:11:13;;;;;;;6.55;5.80;;;;;;;6.47;53.56;100770.27;1749288;80;21061;-67
2022/01/25 06:13:40;;;;;;;6.75;5.62;;;;;;;6.46;53.52;100769.44;1752227;80;21056;-67
2022/01/25 06:16:06;;;;;;;6.62;5.90;;;;;;;6.47;53.50;100767.62;1748699;78;21523;-68
2022/01/25 06:18:33;;;;;;;6.80;5.25;;;;;;;6.46;53.47;100762.00;1758410;78;21062;-67
2022/01/25 06:20:59;;;;;;;6.70;5.80;;;;;;;6.46;53.46;100765.97;1760497;79;21077;-69
2022/01/25 06:23:25;;;;;;;6.60;5.60;;;;;;;6.45;53.43;100766.91;1753790;78;21781;-68
2022/01/25 06:25:52;;;;;;;7.22;5.97;;;;;;;6.44;53.40;100770.03;1759353;79;21041;-68
2022/01/25 06:28:19;;;;;;;6.62;5.75;;;;;;;6.45;53.39;100765.59;1752328;79;21085;-68
2022/01/25 06:30:46;;;;;;;5.80;5.12;;;;;;;6.44;53.36;100763.92;1761813;78;21054;-68
2022/01/25 06:33:12;;;;;;;6.03;5.42;;;;;;;6.44;53.34;100764.75;1760499;80;21522;-67
2022/01/25 06:35:39;;;;;;;6.97;5.53;;;;;;;6.43;53.31;100763.55;1755016;78;20990;-66
2022/01/25 06:38:05;;;;;;;6.12;5.22;;;;;;;6.43;53.30;100757.81;1755436;79;21580;-69
2022/01/25 06:40:32;;;;;;;6.35;5.75;;;;;;;6.43;53.28;100750.34;1750799;79;21151;-68
2022/01/25 06:42:59;;;;;;;6.20;5.37;;;;;;;6.43;53.24;100749.89;1768498;78;21045;-67
2022/01/25 06:45:27;;;;;;;6.30;5.33;;;;;;;6.43;53.22;100748.57;1749913;78;21104;-68
2022/01/25 06:47:53;;;;;;;6.45;5.67;;;;;;;6.43;53.22;100750.34;1748724;78;21093;-68
2022/01/25 06:50:20;;;;;;;6.42;5.53;;;;;;;6.43;53.20;100747.70;1751399;78;21057;-67
2022/01/25 06:52:47;;;;;;;6.17;5.45;;;;;;;6.43;53.17;100739.33;1772082;78;21175;-68
2022/01/25 06:55:15;;;;;;;6.65;5.70;;;;;;;6.43;53.13;100734.05;1755359;80;21022;-67
2022/01/25 06:57:42;;;;;;;6.37;5.67;;;;;;;6.44;53.13;100733.56;1787622;79;21044;-68
2022/01/25 07:00:15;;;;;;;6.47;5.20;;;;;;;6.44;53.10;100724.33;1759350;80;21561;-66
2022/01/25 07:02:42;;;;;;;7.17;6.47;;;;;;;6.44;53.07;100723.84;1771020;79;21006;-66
2022/01/25 07:05:09;;;;;;;6.22;5.45;;;;;;;6.44;53.05;100721.69;1748519;80;21141;-68
2022/01/25 07:07:36;;;;;;;7.60;5.22;;;;;;;6.44;53.05;100720.37;1747129;80;21124;-67
2022/01/25 07:10:04;;;;;;;5.58;4.97;;;;;;;6.44;53.01;100715.09;1751004;78;21018;-66
2022/01/25 07:12:31;;;;;;;5.35;4.80;;;;;;;6.45;52.99;100714.98;1747092;80;21030;-66
2022/01/25 07:14:57;;;;;;;7.12;5.37;;;;;;;6.45;52.97;100716.75;1758698;79;21057;-67
2022/01/25 07:17:24;;;;;;;5.50;4.58;;;;;;;6.45;52.97;100714.98;1769213;78;21981;-67
2022/01/25 07:19:50;;;;;;;6.40;5.50;;;;;;;6.46;52.95;100705.25;1756943;78;21069;-67
2022/01/25 07:22:18;;;;;;;7.03;5.65;;;;;;;6.46;52.92;100706.57;1758074;79;21010;-67
2022/01/25 07:24:44;;;;;;;6.62;5.45;;;;;;;6.47;52.91;100710.88;1766226;79;21053;-67
2022/01/25 07:27:10;;;;;;;6.72;5.72;;;;;;;6.47;52.90;100709.09;1774892;80;21101;-66
2022/01/25 07:29:37;;;;;;;7.12;5.78;;;;;;;6.47;52.87;100700.31;1769584;79;21057;-70
2022/01/25 07:32:05;;;;;;;6.72;5.95;;;;;;;6.48;52.86;100701.52;1762791;79;21084;-67
2022/01/25 07:34:31;;;;;;;7.00;5.50;;;;;;;6.48;52.89;100704.16;1765469;80;21052;-68
2022/01/25 07:36:57;;;;;;;6.00;5.20;;;;;;;6.50;53.10;100702.73;1765332;79;21085;-66
2022/01/25 07:39:26;;;;;;;6.45;5.33;;;;;;;6.53;53.14;100701.64;1768506;80;21517;-66
2022/01/25 07:41:57;;;;;;;6.80;5.80;;;;;;;6.53;53.15;100697.23;1769907;79;21201;-66
2022/01/25 07:44:27;;;;;;;6.80;5.33;;;;;;;6.54;53.13;100688.33;1776806;80;21608;-69
2022/01/25 07:46:51;;;;;;;6.42;5.20;;;;;;;6.56;53.08;100690.86;1758602;79;21096;-69
2022/01/25 07:49:18;;;;;;;6.60;5.30;;;;;;;6.57;53.04;100689.43;1778079;80;21037;-69
2022/01/25 07:51:44;;;;;;;5.95;5.35;;;;;;;6.59;53.03;100689.31;1768419;80;21045;-69
2022/01/25 07:54:11;;;;;;;6.55;5.15;;;;;;;6.60;52.96;100689.66;1773745;80;21065;-67
2022/01/25 07:56:37;;;;;;;6.22;5.40;;;;;;;6.60;52.95;100685.70;1768604;79;21525;-70
2022/01/25 07:59:04;;;;;;;6.60;5.85;;;;;;;6.61;52.91;100685.59;1761349;78;21069;-70
2022/01/25 08:01:30;;;;;;;6.12;5.20;;;;;;;6.64;52.86;100680.53;1767798;79;21008;-69
2022/01/25 08:03:57;;;;;;;6.12;4.92;;;;;;;6.64;52.80;100672.13;1774659;78;21224;-69
2022/01/25 08:06:23;;;;;;;5.92;5.00;;;;;;;6.66;52.79;100680.80;1773062;80;21111;-67
2022/01/25 08:08:52;;;;;;;6.53;5.40;;;;;;;6.67;52.74;100679.82;1759269;80;21054;-70
2022/01/25 08:11:20;;;;;;;6.35;5.12;;;;;;;6.68;52.71;100681.97;1772273;79;21037;-68
2022/01/25 08:13:50;;;;;;;6.00;5.33;;;;;;;6.68;52.67;100675.38;1773368;80;21041;-69
2022/01/25 08:16:17;;;;;;;6.28;5.37;;;;;;;6.69;52.62;100671.30;1789352;80;21076;-67
2022/01/25 08:18:43;;;;;;;6.78;5.72;;;;;;;6.71;52.60;100666.39;1740667;80;21975;-69
2022/01/25 08:21:10;;;;;;;5.95;5.00;;;;;;;6.71;52.54;100657.98;1785245;80;21032;-69
2022/01/25 08:23:36;;;;;;;6.03;5.42;;;;;;;6.71;52.53;100656.66;1780944;79;21088;-68
2022/01/25 08:26:03;;;;;;;7.17;5.58;;;;;;;6.71;52.47;100656.66;1771103;79;21030;-69
2022/01/25 08:28:30;;;;;;;6.65;5.53;;;;;;;6.73;52.47;100656.05;1768914;79;21135;-68
2022/01/25 08:30:58;;;;;;;6.35;5.37;;;;;;;6.72;52.44;100654.36;1768608;79;21146;-68
2022/01/25 08:33:24;;;;;;;6.72;5.55;;;;;;;6.73;52.38;100647.30;1770480;79;21095;-68
2022/01/25 08:35:50;;;;;;;6.25;5.65;;;;;;;6.73;52.37;100650.77;1771122;79;21088;-67
2022/01/25 08:38:17;;;;;;;5.75;5.00;;;;;;;6.74;52.34;100648.97;1771906;80;21524;-67
2022/01/25 08:40:44;;;;;;;6.95;5.85;;;;;;;6.75;52.32;100648.02;1773320;80;21254;-67
2022/01/25 08:43:10;;;;;;;5.92;5.03;;;;;;;6.74;52.29;100644.55;1771800;79;21106;-68
2022/01/25 08:45:36;;;;;;;6.42;5.65;;;;;;;6.76;52.26;100647.05;1773894;80;21457;-69
2022/01/25 08:48:04;;;;;;;6.97;6.12;;;;;;;6.76;52.25;100643.94;1780787;79;21092;-68
2022/01/25 08:50:31;;;;;;;6.67;5.70;;;;;;;6.77;52.23;100635.05;1776144;79;20998;-67
2022/01/25 08:52:57;;;;;;;6.20;5.60;;;;;;;6.79;52.21;100634.92;1776027;80;21084;-65
2022/01/25 08:55:23;;;;;;;6.47;5.33;;;;;;;6.80;52.18;100629.53;1775540;80;21957;-70
2022/01/25 08:57:50;;;;;;;7.12;5.55;;;;;;;6.82;52.17;100628.92;1783016;79;21259;-69
2022/01/25 09:00:16;;;;;;;6.28;5.60;;;;;;;6.84;52.11;100623.04;1765632;80;21049;-69
2022/01/25 09:02:43;;;;;;;6.87;6.17;;;;;;;6.87;52.09;100627.23;1778167;79;21073;-71
2022/01/25 09:05:09;;;;;;;7.25;5.90;;;;;;;6.88;52.07;100626.28;1772745;79;21068;-70
2022/01/25 09:07:36;;;;;;;7.53;5.90;;;;;;;6.90;52.04;100625.67;1766574;80;21130;-68
2022/01/25 09:10:04;;;;;;;6.72;6.03;;;;;;;6.91;52.02;100615.45;1764522;80;21515;-69
2022/01/25 09:12:30;;;;;;;7.22;6.10;;;;;;;6.94;51.98;100613.06;1768292;79;21034;-71
2022/01/25 09:14:58;;;;;;;7.03;5.85;;;;;;;6.95;51.96;100610.77;1782362;80;21489;-68
2022/01/25 09:17:25;;;;;;;6.87;6.17;;;;;;;6.97;51.96;100599.59;1782569;79;21089;-68
2022/01/25 09:19:52;;;;;;;6.35;5.45;;;;;;;7.00;51.91;100598.03;1777186;80;22340;-68
2022/01/25 09:22:19;;;;;;;9.03;6.17;;;;;;;7.03;51.89;100593.80;1776657;80;21039;-70
2022/01/25 09:24:45;;;;;;;6.35;5.65;;;;;;;7.07;51.87;100592.13;1764329;79;20986;-68
2022/01/25 09:27:12;;;;;;;8.53;6.35;;;;;;;7.11;51.84;100585.25;1773032;79;21022;-68
2022/01/25 09:29:38;;;;;;;7.05;5.97;;;;;;;7.14;51.83;100571.80;1779237;80;21033;-71
2022/01/25 09:32:05;;;;;;;6.42;5.70;;;;;;;7.18;51.82;100567.94;1776854;79;21050;-69
2022/01/25 09:34:32;;;;;;;7.03;6.30;;;;;;;7.20;51.76;100566.84;1770763;79;21037;-69
2022/01/25 09:36:58;;;;;;;7.12;6.28;;;;;;;7.25;51.73;100566.48;1782726;80;21051;-69
2022/01/25 09:39:25;;;;;;;6.83;6.10;;;;;;;7.31;51.67;100566.46;1783667;79;21076;-70
2022/01/25 09:41:52;;;;;;;6.75;5.80;;;;;;;7.35;51.62;100569.20;1784406;79;21508;-69
2022/01/25 09:44:19;;;;;;;6.90;5.37;;;;;;;7.39;51.59;100564.84;1762862;79;21147;-69
2022/01/25 09:46:45;;;;;;;7.28;5.90;;;;;;;7.45;51.59;100566.97;1783296;80;21755;-71
2022/01/25 09:49:11;;;;;;;5.85;5.20;;;;;;;7.51;51.58;100560.83;1776301;80;21448;-70
2022/01/25 09:51:40;;;;;;;7.00;5.70;;;;;;;7.57;51.61;100556.34;1777594;79;21028;-68
2022/01/25 09:54:06;;;;;;;6.92;6.08;;;;;;;7.62;51.65;100552.34;1781510;80;21007;-70
2022/01/25 09:56:34;;;;;;;6.58;5.40;;;;;;;7.67;51.67;100549.33;1786911;79;21046;-69
2022/01/25 09:59:00;;;;;;;6.67;5.85;;;;;;;7.72;51.65;100539.67;1782033;79;21034;-70
2022/01/25 10:01:29;;;;;;;7.53;6.45;;;;;;;7.77;51.65;100534.84;1756478;80;21096;-69
2022/01/25 10:03:56;;;;;;;7.45;6.03;;;;;;;7.84;51.59;100525.39;1767759;79;21506;-69
2022/01/25 10:06:22;;;;;;;6.22;5.58;;;;;;;7.93;51.63;100531.72;1778958;79;21025;-70
2022/01/25 10:08:51;;;;;;;8.18;6.22;;;;;;;8.01;51.65;100538.02;1767804;80;21182;-69
2022/01/25 10:11:21;;;;;;;8.30;5.78;;;;;;;8.10;51.63;100535.56;1771664;80;21550;-69
2022/01/25 10:13:51;;;;;;;6.65;5.62;;;;;;;8.17;51.58;100528.75;1772045;80;21529;-70
2022/01/25 10:16:24;;;;;;;6.70;5.87;;;;;;;8.23;51.53;100522.95;1778475;79;21037;-69
2022/01/25 10:19:01;;;;;;;7.22;6.25;;;;;;;8.27;51.50;100517.73;1782290;79;21053;-70
2022/01/25 10:21:34;;;;;;;6.15;5.55;;;;;;;8.30;51.48;100513.47;1781847;80;21154;-67
2022/01/25 10:24:17;;;;;;;6.95;6.05;;;;;;;8.33;51.46;100515.03;1781763;79;21092;-67
2022/01/25 10:29:52;;;;;;;7.97;6.22;;;;;;;8.43;51.38;100502.19;1875559;76;28137;-68
2022/01/25 10:32:21;;;;;;;7.78;6.42;;;;;;;8.44;51.31;100505.67;1851773;77;21009;-67
2022/01/25 10:34:49;;;;;;;7.08;5.85;;;;;;;8.48;51.26;100493.00;1845560;77;21055;-66
2022/01/25 10:37:24;;;;;;;7.08;6.08;;;;;;;8.52;51.22;100492.61;1852955;77;20929;-67
2022/01/25 10:39:52;;;;;;;6.58;5.83;;;;;;;8.56;51.15;100491.85;1848683;77;21517;-68
2022/01/25 10:42:25;;;;;;;7.03;6.17;;;;;;;8.61;51.11;100489.61;1851514;77;21097;-67
2022/01/25 10:45:04;;;;;;;7.00;6.10;;;;;;;8.66;51.04;100488.23;1840585;77;24852;-67
2022/01/25 10:47:48;;;;;;;7.80;6.33;;;;;;;8.73;50.98;100484.56;1853017;77;22395;-68
2022/01/25 10:50:26;;;;;;;7.08;6.20;;;;;;;8.82;50.91;100468.30;1848936;77;20980;-68
2022/01/25 10:53:11;;;;;;;6.60;5.67;;;;;;;8.92;50.84;100461.67;1854473;77;21009;-69
2022/01/25 10:55:49;;;;;;;7.03;6.08;;;;;;;9.02;50.77;100462.50;1858433;77;21536;-68
2022/01/25 10:58:16;;;;;;;7.22;6.53;;;;;;;9.12;50.72;100466.50;1846661;77;21077;-69
2022/01/25 11:00:45;;;;;;;7.47;6.20;;;;;;;9.20;50.66;100472.75;1846664;77;23291;-70
2022/01/25 11:03:35;;;;;;;7.65;6.65;;;;;;;9.30;50.55;100467.94;1855274;75;21493;-69
2022/01/25 11:06:18;;;;;;;8.18;6.92;;;;;;;9.37;50.49;100456.62;1822676;77;21006;-68
2022/01/25 11:08:48;;;;;;;7.73;6.27;;;;;;;9.44;50.32;100459.05;1848544;77;21052;-68
2022/01/25 11:11:33;;;;;;;6.87;6.17;;;;;;;9.51;50.26;100455.82;1838750;77;21005;-67
2022/01/25 11:14:50;;;;;;;7.83;6.85;;;;;;;9.57;50.17;100452.59;1838375;77;21104;-67
2022/01/25 11:16:27;;;;;;;7.72;6.40;;;;;;;9.62;50.11;100443.22;1840159;77;21009;-68
2022/01/25 11:18:53;;;;;;;7.30;6.60;;;;;;;9.66;50.08;100446.42;1845828;77;21040;-67
2022/01/25 11:21:20;;;;;;;7.15;6.40;;;;;;;9.71;49.98;100436.69;1843884;77;21011;-69
2022/01/25 11:23:47;;;;;;;8.00;7.08;;;;;;;9.74;49.87;100439.06;1843357;77;21025;-68
2022/01/25 11:26:14;;;;;;;7.83;6.65;;;;;;;9.77;49.77;100439.61;1853657;77;21134;-68
2022/01/25 11:28:41;;;;;;;8.38;7.10;;;;;;;9.81;49.67;100429.05;1858682;75;20981;-68
2022/01/25 11:31:20;;;;;;;7.47;6.67;;;;;;;9.84;49.58;100424.75;1852366;77;21031;-67
2022/01/25 11:33:48;;;;;;;7.70;6.47;;;;;;;9.88;49.46;100419.99;1849903;77;21067;-69
2022/01/25 11:36:15;;;;;;;7.58;6.78;;;;;;;9.92;49.35;100414.73;1847041;77;21561;-70
2022/01/25 11:38:48;;;;;;;10.48;6.85;;;;;;;9.95;49.26;100411.80;1844054;77;21146;-67
2022/01/25 11:41:23;;;;;;;7.70;6.67;;;;;;;9.97;49.16;100401.86;1838924;77;27441;-69
2022/01/25 11:44:12;;;;;;;7.03;6.12;;;;;;;10.00;49.07;100399.39;1843659;77;21045;-68
2022/01/25 11:46:41;;;;;;;7.72;6.90;;;;;;;10.00;49.00;100393.59;1823044;77;21017;-66
2022/01/25 11:49:19;;;;;;;9.18;7.30;;;;;;;10.02;48.90;100384.16;1856174;77;21419;-66
2022/01/25 11:52:08;;;;;;;8.78;7.40;;;;;;;10.01;48.82;100372.70;1831438;75;22393;-67
2022/01/25 11:54:35;;;;;;;8.20;6.97;;;;;;;10.00;48.77;100369.70;1849396;77;21057;-73
2022/01/25 11:57:20;;;;;;;7.78;6.97;;;;;;;10.00;48.67;100363.06;1844486;77;21005;-73
2022/01/25 11:59:52;;;;;;;8.35;7.10;;;;;;;9.99;48.65;100361.41;1819043;77;21149;-68
2022/01/25 12:02:42;;;;;;;8.23;7.42;;;;;;;10.00;48.58;100363.06;1855568;77;21071;-72
2022/01/25 12:05:12;;;;;;;8.38;7.30;;;;;;;10.01;48.49;100355.95;1831306;77;21768;-69
2022/01/25 12:07:42;;;;;;;7.85;6.85;;;;;;;10.03;48.43;100355.31;1828908;77;20986;-71
2022/01/25 12:10:37;;;;;;;7.80;6.75;;;;;;;10.04;48.38;100352.52;1851123;77;21088;-64
2022/01/25 12:13:23;;;;;;;8.58;6.70;;;;;;;10.07;48.32;100354.52;1842156;77;21034;-70
2022/01/25 12:16:26;;;;;;;8.78;7.60;;;;;;;10.09;48.22;100350.72;1842271;77;21107;-66
2022/01/25 12:19:00;;;;;;;8.05;6.97;;;;;;;10.10;48.17;100354.20;1838836;77;22207;-68
2022/01/25 12:21:54;;;;;;;8.65;7.50;;;;;;;10.13;48.09;100345.95;1843021;77;21017;-67
2022/01/25 12:24:35;;;;;;;7.45;6.65;;;;;;;10.14;48.03;100338.31;1847636;77;21536;-67
2022/01/25 12:27:19;;;;;;;8.25;7.03;;;;;;;10.15;47.96;100334.19;1843604;77;21018;-72
2022/01/25 12:29:44;;;;;;;9.03;6.80;;;;;;;10.17;47.93;100328.73;1838648;77;20989;-71
2022/01/25 12:32:35;;;;;;;7.92;6.70;;;;;;;10.18;47.88;100318.47;1849916;77;21093;-71
2022/01/25 12:35:08;;;;;;;9.60;7.05;;;;;;;10.18;47.84;100321.13;1847718;77;21021;-69
2022/01/25 12:37:54;;;;;;;8.18;6.70;;;;;;;10.19;47.78;100309.50;1858468;77;21032;-69
2022/01/25 12:40:29;;;;;;;7.72;6.70;;;;;;;10.18;47.75;100302.04;1840650;77;21033;-71
2022/01/25 12:43:02;;;;;;;7.42;6.50;;;;;;;10.19;47.68;100303.69;1839156;77;21001;-68
2022/01/25 12:45:40;;;;;;;8.73;7.40;;;;;;;10.19;47.64;100299.70;1852113;77;21132;-69
2022/01/25 12:48:09;;;;;;;7.83;6.78;;;;;;;10.21;47.56;100302.22;1814122;77;21065;-69
2022/01/25 12:50:42;;;;;;;7.50;6.75;;;;;;;10.22;47.51;100304.73;1845061;77;21021;-71
2022/01/25 12:53:11;;;;;;;9.38;6.92;;;;;;;10.24;47.46;100305.41;1838421;77;21068;-70
2022/01/25 12:55:43;;;;;;;8.40;7.50;;;;;;;10.24;47.41;100308.06;1836279;77;21057;-71
2022/01/25 12:58:09;;;;;;;8.75;7.53;;;;;;;10.24;47.36;100300.59;1828732;76;21177;-68
2022/01/25 13:00:43;;;;;;;8.23;7.00;;;;;;;10.21;47.33;100305.70;1842288;77;21021;-71
2022/01/25 13:03:44;;;;;;;8.80;7.87;;;;;;;10.20;47.25;100295.25;1848136;75;21048;-69
2022/01/25 13:06:17;;;;;;;9.55;7.42;;;;;;;10.17;47.23;100292.89;1845134;76;21060;-70
2022/01/25 13:08:59;;;;;;;8.58;7.37;;;;;;;10.12;47.16;100302.66;1843379;77;21032;-69
2022/01/25 13:11:28;;;;;;;10.85;7.53;;;;;;;10.08;47.17;100296.45;1850049;77;21345;-70
2022/01/25 13:16:46;;;;;;;8.35;7.47;;;;;;;9.97;47.19;100295.69;1850666;77;21886;-70
2022/01/25 13:19:16;;;;;;;10.20;7.58;;;;;;;9.91;47.17;100294.12;1857585;77;21092;-70
2022/01/25 13:21:54;;;;;;;8.63;7.42;;;;;;;9.85;47.21;100292.92;1857141;77;21615;-67
2022/01/25 13:24:22;;;;;;;9.15;7.70;;;;;;;9.80;47.22;100288.55;1849392;77;21194;-68
2022/01/25 13:26:56;;;;;;;9.30;7.33;;;;;;;9.74;47.20;100287.33;1845682;77;21097;-71
2022/01/25 13:32:27;;;;;;;9.80;8.25;;;;;;;9.63;47.19;100289.69;1821827;77;21058;-69